Aérodrome :
LOGIN :

S'inscrire | Disclaimer

   EN    FR    IT 

 










Légende :    VFR   VFR Marginal   IFR   IFR Intensif   IFR Très Intensif
Visi : 
Plafond : 
>= 8 km
>= 3000ft
5 à 8 km
1000 à 3000 ft
1500m à 5 km
500 à 1000 ft
800 à 1500m
200 à 500 ft
< 800m
< 200 ft
Symboles :   Orages  Brouillard  Fortes neiges  Fortes précipitations  Vent > 20 kt
SIGMETs :   Divers  Orages  Givrage  Turbulence  Onde Orograph.  Cendres Volcan.







- Altitude de l'aérodrome : 240 ft
- Code IATA : VLC


LEVC - Valencia Manises

DERNIER METAR :
  • 211330Z 08015KT 050V110 9999 FEW040 16/02 Q1027 NOSIG

METARs EXPIRÉS :
  • 211300Z 08013KT 030V110 9999 FEW040 16/02 Q1028 NOSIG
  • 211230Z 08012KT 030V120 9999 FEW040 16/01 Q1028 NOSIG
  • 211200Z 07013KT 030V100 9999 FEW040 16/00 Q1028 NOSIG
  • 211130Z 07014KT 030V100 9999 FEW040 16/M01 Q1028 NOSIG
  • 211100Z 07014G24KT 030V110 9999 FEW030 16/M01 Q1028 NOSIG
  • 211030Z 07012KT 020V110 9999 FEW030 16/M01 Q1028 NOSIG

TAF TAF LEVC
Valide du 21 à 12h jusqu'au 22 à 12h UTC


211100Z 2112/2212 07013KT 9999 FEW030 TX17/2113Z TN07/2206Z
TEMPO 2112/2116 07013G25KT
BECMG 2118/2121 34005KT
BECMG 2207/2210 07011KT
Pas de NOTAMs connus pour ce terrain.



MET'MAP, la Météo Aéronautique d'un coup d'oeil ! - Copyright ORBIFLY Décembre 2007 - Disclaimer

ORBIFLY MET'MAP TEAM :

Programmation & Développement : Alexandra Zaïnal
Conception & Développement : Baudouin d'Aumeries
Co-Programmation & Développement : Marc-Olivier Méhu
Soutien technique & logistique : Manuel Goepfert

Contact : metmap@orbifly.com




SOURCES & CREDITS :

   NOAA